sensor_id;sensor_type;location;lat;lon;timestamp;P1;durP1;ratioP1;P2;durP2;ratioP2
82265;SDS011;71866;53.340;-6.308;2023-11-22T00:00:21;2.47;;;0.80;;
82265;SDS011;71866;53.340;-6.308;2023-11-22T00:02:47;5.35;;;1.00;;
82265;SDS011;71866;53.340;-6.308;2023-11-22T00:05:15;5.40;;;1.38;;
82265;SDS011;71866;53.340;-6.308;2023-11-22T00:07:42;4.40;;;1.27;;
82265;SDS011;71866;53.340;-6.308;2023-11-22T00:10:10;5.32;;;1.52;;
82265;SDS011;71866;53.340;-6.308;2023-11-22T00:12:36;4.05;;;0.90;;
82265;SDS011;71866;53.340;-6.308;2023-11-22T00:15:04;3.67;;;1.30;;
82265;SDS011;71866;53.340;-6.308;2023-11-22T00:17:32;4.57;;;1.23;;
82265;SDS011;71866;53.340;-6.308;2023-11-22T00:20:00;2.33;;;1.00;;
82265;SDS011;71866;53.340;-6.308;2023-11-22T00:22:27;3.78;;;1.00;;
82265;SDS011;71866;53.340;-6.308;2023-11-22T00:24:55;2.75;;;1.52;;
82265;SDS011;71866;53.340;-6.308;2023-11-22T00:27:21;5.65;;;1.23;;
82265;SDS011;71866;53.340;-6.308;2023-11-22T00:29:48;3.65;;;1.08;;
82265;SDS011;71866;53.340;-6.308;2023-11-22T00:32:16;2.20;;;0.95;;
82265;SDS011;71866;53.340;-6.308;2023-11-22T00:34:42;2.38;;;1.00;;
82265;SDS011;71866;53.340;-6.308;2023-11-22T00:37:09;3.05;;;0.70;;
82265;SDS011;71866;53.340;-6.308;2023-11-22T00:39:36;3.25;;;0.80;;
82265;SDS011;71866;53.340;-6.308;2023-11-22T00:42:03;2.05;;;0.65;;
82265;SDS011;71866;53.340;-6.308;2023-11-22T00:44:30;3.38;;;0.68;;
82265;SDS011;71866;53.340;-6.308;2023-11-22T00:46:58;2.03;;;0.80;;
82265;SDS011;71866;53.340;-6.308;2023-11-22T00:49:25;2.08;;;0.68;;
82265;SDS011;71866;53.340;-6.308;2023-11-22T00:51:52;3.15;;;0.95;;
82265;SDS011;71866;53.340;-6.308;2023-11-22T00:54:19;0.85;;;0.50;;
82265;SDS011;71866;53.340;-6.308;2023-11-22T00:56:47;1.65;;;0.70;;
82265;SDS011;71866;53.340;-6.308;2023-11-22T00:59:13;1.00;;;0.47;;
82265;SDS011;71866;53.340;-6.308;2023-11-22T01:01:41;0.75;;;0.60;;
82265;SDS011;71866;53.340;-6.308;2023-11-22T01:04:08;2.20;;;0.75;;
82265;SDS011;71866;53.340;-6.308;2023-11-22T01:06:35;1.48;;;0.77;;
82265;SDS011;71866;53.340;-6.308;2023-11-22T01:09:02;1.83;;;0.63;;
82265;SDS011;71866;53.340;-6.308;2023-11-22T01:11:30;2.90;;;0.80;;
82265;SDS011;71866;53.340;-6.308;2023-11-22T01:13:58;1.27;;;0.80;;
82265;SDS011;71866;53.340;-6.308;2023-11-22T01:16:25;2.17;;;0.80;;
82265;SDS011;71866;53.340;-6.308;2023-11-22T01:18:51;2.53;;;0.98;;
82265;SDS011;71866;53.340;-6.308;2023-11-22T01:21:19;0.90;;;0.70;;
82265;SDS011;71866;53.340;-6.308;2023-11-22T01:23:46;2.95;;;0.77;;
82265;SDS011;71866;53.340;-6.308;2023-11-22T01:26:14;1.35;;;1.00;;
82265;SDS011;71866;53.340;-6.308;2023-11-22T01:28:41;2.65;;;0.98;;
82265;SDS011;71866;53.340;-6.308;2023-11-22T01:31:08;1.55;;;0.75;;
82265;SDS011;71866;53.340;-6.308;2023-11-22T01:33:37;1.45;;;0.82;;
82265;SDS011;71866;53.340;-6.308;2023-11-22T01:36:05;1.27;;;0.88;;
82265;SDS011;71866;53.340;-6.308;2023-11-22T01:38:33;3.25;;;1.10;;
82265;SDS011;71866;53.340;-6.308;2023-11-22T01:40:59;3.55;;;1.30;;
82265;SDS011;71866;53.340;-6.308;2023-11-22T01:43:27;1.85;;;1.02;;
82265;SDS011;71866;53.340;-6.308;2023-11-22T01:45:54;3.72;;;1.15;;
82265;SDS011;71866;53.340;-6.308;2023-11-22T01:48:21;3.28;;;1.10;;
82265;SDS011;71866;53.340;-6.308;2023-11-22T01:50:50;3.05;;;1.52;;
82265;SDS011;71866;53.340;-6.308;2023-11-22T01:53:17;3.63;;;1.23;;
82265;SDS011;71866;53.340;-6.308;2023-11-22T01:55:45;3.65;;;1.20;;
82265;SDS011;71866;53.340;-6.308;2023-11-22T01:58:14;2.10;;;1.10;;
82265;SDS011;71866;53.340;-6.308;2023-11-22T02:00:50;2.17;;;1.00;;
82265;SDS011;71866;53.340;-6.308;2023-11-22T02:03:18;2.42;;;1.17;;
82265;SDS011;71866;53.340;-6.308;2023-11-22T02:05:46;1.90;;;1.30;;
82265;SDS011;71866;53.340;-6.308;2023-11-22T02:08:14;1.73;;;1.13;;
82265;SDS011;71866;53.340;-6.308;2023-11-22T02:10:41;2.42;;;1.30;;
82265;SDS011;71866;53.340;-6.308;2023-11-22T02:13:08;2.13;;;0.93;;
82265;SDS011;71866;53.340;-6.308;2023-11-22T02:15:36;1.90;;;1.10;;
82265;SDS011;71866;53.340;-6.308;2023-11-22T02:18:03;2.35;;;1.00;;
82265;SDS011;71866;53.340;-6.308;2023-11-22T02:20:38;1.75;;;0.90;;
82265;SDS011;71866;53.340;-6.308;2023-11-22T02:23:09;2.90;;;1.33;;
82265;SDS011;71866;53.340;-6.308;2023-11-22T02:25:38;2.70;;;1.10;;
82265;SDS011;71866;53.340;-6.308;2023-11-22T02:28:05;2.33;;;1.05;;
82265;SDS011;71866;53.340;-6.308;2023-11-22T02:30:32;1.63;;;0.73;;
82265;SDS011;71866;53.340;-6.308;2023-11-22T02:33:00;1.85;;;0.98;;
82265;SDS011;71866;53.340;-6.308;2023-11-22T02:35:26;2.25;;;1.00;;
82265;SDS011;71866;53.340;-6.308;2023-11-22T02:37:54;1.48;;;0.70;;
82265;SDS011;71866;53.340;-6.308;2023-11-22T02:40:22;2.90;;;0.88;;
82265;SDS011;71866;53.340;-6.308;2023-11-22T02:42:52;0.88;;;0.70;;
82265;SDS011;71866;53.340;-6.308;2023-11-22T02:45:21;1.40;;;0.80;;
82265;SDS011;71866;53.340;-6.308;2023-11-22T02:47:51;1.15;;;0.75;;
82265;SDS011;71866;53.340;-6.308;2023-11-22T02:50:18;1.00;;;0.80;;
82265;SDS011;71866;53.340;-6.308;2023-11-22T02:52:45;2.15;;;0.75;;
82265;SDS011;71866;53.340;-6.308;2023-11-22T02:55:12;0.90;;;0.60;;
82265;SDS011;71866;53.340;-6.308;2023-11-22T02:57:39;0.98;;;0.73;;
82265;SDS011;71866;53.340;-6.308;2023-11-22T03:00:06;1.20;;;0.63;;
82265;SDS011;71866;53.340;-6.308;2023-11-22T03:02:35;1.05;;;0.70;;
82265;SDS011;71866;53.340;-6.308;2023-11-22T03:05:01;2.85;;;0.70;;
82265;SDS011;71866;53.340;-6.308;2023-11-22T03:07:29;1.08;;;0.65;;
82265;SDS011;71866;53.340;-6.308;2023-11-22T03:09:56;2.28;;;0.85;;
82265;SDS011;71866;53.340;-6.308;2023-11-22T03:12:24;0.95;;;0.70;;
82265;SDS011;71866;53.340;-6.308;2023-11-22T03:14:50;1.67;;;0.75;;
82265;SDS011;71866;53.340;-6.308;2023-11-22T03:17:18;1.70;;;0.82;;
82265;SDS011;71866;53.340;-6.308;2023-11-22T03:19:45;0.82;;;0.70;;
82265;SDS011;71866;53.340;-6.308;2023-11-22T03:22:11;3.42;;;0.90;;
82265;SDS011;71866;53.340;-6.308;2023-11-22T03:24:39;2.70;;;0.80;;
82265;SDS011;71866;53.340;-6.308;2023-11-22T03:27:06;1.67;;;0.95;;
82265;SDS011;71866;53.340;-6.308;2023-11-22T03:29:33;2.15;;;0.90;;
82265;SDS011;71866;53.340;-6.308;2023-11-22T03:32:00;1.63;;;0.80;;
82265;SDS011;71866;53.340;-6.308;2023-11-22T03:34:27;2.70;;;1.00;;
82265;SDS011;71866;53.340;-6.308;2023-11-22T03:36:55;1.48;;;0.70;;
82265;SDS011;71866;53.340;-6.308;2023-11-22T03:39:22;1.70;;;0.90;;
82265;SDS011;71866;53.340;-6.308;2023-11-22T03:41:49;2.65;;;1.00;;
82265;SDS011;71866;53.340;-6.308;2023-11-22T03:44:16;1.90;;;0.80;;
82265;SDS011;71866;53.340;-6.308;2023-11-22T03:46:43;1.23;;;0.80;;
82265;SDS011;71866;53.340;-6.308;2023-11-22T03:49:10;1.48;;;0.80;;
82265;SDS011;71866;53.340;-6.308;2023-11-22T03:51:38;3.08;;;0.98;;
82265;SDS011;71866;53.340;-6.308;2023-11-22T03:54:05;2.42;;;1.02;;
82265;SDS011;71866;53.340;-6.308;2023-11-22T03:56:32;1.20;;;0.93;;
82265;SDS011;71866;53.340;-6.308;2023-11-22T03:58:59;1.02;;;0.73;;
82265;SDS011;71866;53.340;-6.308;2023-11-22T04:01:26;0.80;;;0.80;;
82265;SDS011;71866;53.340;-6.308;2023-11-22T04:03:57;1.63;;;0.80;;
82265;SDS011;71866;53.340;-6.308;2023-11-22T04:06:23;1.70;;;0.70;;
82265;SDS011;71866;53.340;-6.308;2023-11-22T04:08:51;1.30;;;0.88;;
82265;SDS011;71866;53.340;-6.308;2023-11-22T04:11:18;1.52;;;0.82;;
82265;SDS011;71866;53.340;-6.308;2023-11-22T04:13:44;1.23;;;0.93;;
82265;SDS011;71866;53.340;-6.308;2023-11-22T04:18:40;0.82;;;0.63;;
82265;SDS011;71866;53.340;-6.308;2023-11-22T04:23:35;1.25;;;0.70;;
82265;SDS011;71866;53.340;-6.308;2023-11-22T04:26:03;1.27;;;0.80;;
82265;SDS011;71866;53.340;-6.308;2023-11-22T04:28:31;1.40;;;0.65;;
82265;SDS011;71866;53.340;-6.308;2023-11-22T04:30:59;1.58;;;0.60;;
82265;SDS011;71866;53.340;-6.308;2023-11-22T04:33:25;2.65;;;0.60;;
82265;SDS011;71866;53.340;-6.308;2023-11-22T04:35:52;0.90;;;0.30;;
82265;SDS011;71866;53.340;-6.308;2023-11-22T04:38:20;1.73;;;0.60;;
82265;SDS011;71866;53.340;-6.308;2023-11-22T04:40:46;1.05;;;0.40;;
82265;SDS011;71866;53.340;-6.308;2023-11-22T04:43:14;0.77;;;0.63;;
82265;SDS011;71866;53.340;-6.308;2023-11-22T04:45:41;0.57;;;0.50;;
82265;SDS011;71866;53.340;-6.308;2023-11-22T04:48:08;0.60;;;0.50;;
82265;SDS011;71866;53.340;-6.308;2023-11-22T04:50:35;0.40;;;0.40;;
82265;SDS011;71866;53.340;-6.308;2023-11-22T04:53:03;0.50;;;0.40;;
82265;SDS011;71866;53.340;-6.308;2023-11-22T04:55:30;0.52;;;0.43;;
82265;SDS011;71866;53.340;-6.308;2023-11-22T04:57:56;0.80;;;0.38;;
82265;SDS011;71866;53.340;-6.308;2023-11-22T05:00:24;0.30;;;0.30;;
82265;SDS011;71866;53.340;-6.308;2023-11-22T05:02:51;1.98;;;0.30;;
82265;SDS011;71866;53.340;-6.308;2023-11-22T05:05:18;0.50;;;0.30;;
82265;SDS011;71866;53.340;-6.308;2023-11-22T05:07:45;0.65;;;0.40;;
82265;SDS011;71866;53.340;-6.308;2023-11-22T05:10:12;0.47;;;0.35;;
82265;SDS011;71866;53.340;-6.308;2023-11-22T05:12:39;0.65;;;0.55;;
82265;SDS011;71866;53.340;-6.308;2023-11-22T05:15:07;0.52;;;0.25;;
82265;SDS011;71866;53.340;-6.308;2023-11-22T05:17:35;0.20;;;0.20;;
82265;SDS011;71866;53.340;-6.308;2023-11-22T05:20:03;1.70;;;0.43;;
82265;SDS011;71866;53.340;-6.308;2023-11-22T05:22:31;0.28;;;0.28;;
82265;SDS011;71866;53.340;-6.308;2023-11-22T05:24:57;1.00;;;0.30;;
82265;SDS011;71866;53.340;-6.308;2023-11-22T05:27:25;0.45;;;0.30;;
82265;SDS011;71866;53.340;-6.308;2023-11-22T05:29:51;1.20;;;0.45;;
82265;SDS011;71866;53.340;-6.308;2023-11-22T05:32:21;0.30;;;0.30;;
82265;SDS011;71866;53.340;-6.308;2023-11-22T05:34:48;0.60;;;0.32;;
82265;SDS011;71866;53.340;-6.308;2023-11-22T05:37:15;1.25;;;0.35;;
82265;SDS011;71866;53.340;-6.308;2023-11-22T05:39:42;0.77;;;0.38;;
82265;SDS011;71866;53.340;-6.308;2023-11-22T05:42:09;0.63;;;0.30;;
82265;SDS011;71866;53.340;-6.308;2023-11-22T05:44:36;1.05;;;0.30;;
82265;SDS011;71866;53.340;-6.308;2023-11-22T05:47:04;2.88;;;0.38;;
82265;SDS011;71866;53.340;-6.308;2023-11-22T05:49:31;2.10;;;0.30;;
82265;SDS011;71866;53.340;-6.308;2023-11-22T05:51:58;1.13;;;0.30;;
82265;SDS011;71866;53.340;-6.308;2023-11-22T05:54:25;0.82;;;0.40;;
82265;SDS011;71866;53.340;-6.308;2023-11-22T05:56:53;1.60;;;0.40;;
82265;SDS011;71866;53.340;-6.308;2023-11-22T05:59:24;2.00;;;0.35;;
82265;SDS011;71866;53.340;-6.308;2023-11-22T06:01:51;1.15;;;0.30;;
82265;SDS011;71866;53.340;-6.308;2023-11-22T06:04:18;0.75;;;0.40;;
82265;SDS011;71866;53.340;-6.308;2023-11-22T06:06:45;0.40;;;0.38;;
82265;SDS011;71866;53.340;-6.308;2023-11-22T06:09:13;1.05;;;0.32;;
82265;SDS011;71866;53.340;-6.308;2023-11-22T06:11:39;3.05;;;0.43;;
82265;SDS011;71866;53.340;-6.308;2023-11-22T06:14:07;1.55;;;0.40;;
82265;SDS011;71866;53.340;-6.308;2023-11-22T06:16:35;1.52;;;0.40;;
82265;SDS011;71866;53.340;-6.308;2023-11-22T06:19:03;0.85;;;0.45;;
82265;SDS011;71866;53.340;-6.308;2023-11-22T06:21:30;0.40;;;0.40;;
82265;SDS011;71866;53.340;-6.308;2023-11-22T06:23:57;0.43;;;0.30;;
82265;SDS011;71866;53.340;-6.308;2023-11-22T06:26:25;4.22;;;0.60;;
82265;SDS011;71866;53.340;-6.308;2023-11-22T06:28:52;0.82;;;0.32;;
82265;SDS011;71866;53.340;-6.308;2023-11-22T06:31:19;1.50;;;0.50;;
82265;SDS011;71866;53.340;-6.308;2023-11-22T06:33:46;2.13;;;0.50;;
82265;SDS011;71866;53.340;-6.308;2023-11-22T06:36:14;1.15;;;0.50;;
82265;SDS011;71866;53.340;-6.308;2023-11-22T06:38:41;1.85;;;0.45;;
82265;SDS011;71866;53.340;-6.308;2023-11-22T06:41:08;0.50;;;0.30;;
82265;SDS011;71866;53.340;-6.308;2023-11-22T06:43:35;1.63;;;0.70;;
82265;SDS011;71866;53.340;-6.308;2023-11-22T06:46:03;1.70;;;0.57;;
82265;SDS011;71866;53.340;-6.308;2023-11-22T06:48:31;2.08;;;0.60;;
82265;SDS011;71866;53.340;-6.308;2023-11-22T06:50:59;2.03;;;0.40;;
82265;SDS011;71866;53.340;-6.308;2023-11-22T06:53:25;1.58;;;0.45;;
82265;SDS011;71866;53.340;-6.308;2023-11-22T06:55:54;2.58;;;0.40;;
82265;SDS011;71866;53.340;-6.308;2023-11-22T06:58:22;1.77;;;0.40;;
82265;SDS011;71866;53.340;-6.308;2023-11-22T07:00:48;1.35;;;0.63;;
82265;SDS011;71866;53.340;-6.308;2023-11-22T07:03:15;2.95;;;0.50;;
82265;SDS011;71866;53.340;-6.308;2023-11-22T07:05:43;2.25;;;0.60;;
82265;SDS011;71866;53.340;-6.308;2023-11-22T07:08:10;1.98;;;0.52;;
82265;SDS011;71866;53.340;-6.308;2023-11-22T07:10:38;2.55;;;0.70;;
82265;SDS011;71866;53.340;-6.308;2023-11-22T07:13:06;3.72;;;0.70;;
82265;SDS011;71866;53.340;-6.308;2023-11-22T07:15:33;3.88;;;0.63;;
82265;SDS011;71866;53.340;-6.308;2023-11-22T07:18:00;1.38;;;0.77;;
82265;SDS011;71866;53.340;-6.308;2023-11-22T07:20:27;1.85;;;0.60;;
82265;SDS011;71866;53.340;-6.308;2023-11-22T07:22:55;1.10;;;0.40;;
82265;SDS011;71866;53.340;-6.308;2023-11-22T07:25:21;1.50;;;0.50;;
82265;SDS011;71866;53.340;-6.308;2023-11-22T07:27:48;1.65;;;0.75;;
82265;SDS011;71866;53.340;-6.308;2023-11-22T07:30:16;3.97;;;0.90;;
82265;SDS011;71866;53.340;-6.308;2023-11-22T07:32:43;3.17;;;0.70;;
82265;SDS011;71866;53.340;-6.308;2023-11-22T07:35:11;2.88;;;0.70;;
82265;SDS011;71866;53.340;-6.308;2023-11-22T07:37:39;0.95;;;0.63;;
82265;SDS011;71866;53.340;-6.308;2023-11-22T07:40:06;3.05;;;0.90;;
82265;SDS011;71866;53.340;-6.308;2023-11-22T07:42:34;2.67;;;1.17;;
82265;SDS011;71866;53.340;-6.308;2023-11-22T07:45:00;2.25;;;0.80;;
82265;SDS011;71866;53.340;-6.308;2023-11-22T07:47:27;2.67;;;0.90;;
82265;SDS011;71866;53.340;-6.308;2023-11-22T07:49:55;1.27;;;0.70;;
82265;SDS011;71866;53.340;-6.308;2023-11-22T07:52:22;3.72;;;1.02;;
82265;SDS011;71866;53.340;-6.308;2023-11-22T07:54:49;1.80;;;0.80;;
82265;SDS011;71866;53.340;-6.308;2023-11-22T07:57:16;1.92;;;1.13;;
82265;SDS011;71866;53.340;-6.308;2023-11-22T07:59:44;1.92;;;0.60;;
82265;SDS011;71866;53.340;-6.308;2023-11-22T08:02:11;2.55;;;0.65;;
82265;SDS011;71866;53.340;-6.308;2023-11-22T08:04:37;1.88;;;0.70;;
82265;SDS011;71866;53.340;-6.308;2023-11-22T08:07:05;1.70;;;0.70;;
82265;SDS011;71866;53.340;-6.308;2023-11-22T08:09:32;4.28;;;0.82;;
82265;SDS011;71866;53.340;-6.308;2023-11-22T08:11:59;1.88;;;0.60;;
82265;SDS011;71866;53.340;-6.308;2023-11-22T08:14:26;2.92;;;0.80;;
82265;SDS011;71866;53.340;-6.308;2023-11-22T08:16:53;1.40;;;0.85;;
82265;SDS011;71866;53.340;-6.308;2023-11-22T08:19:21;2.72;;;0.70;;
82265;SDS011;71866;53.340;-6.308;2023-11-22T08:21:48;1.50;;;0.68;;
82265;SDS011;71866;53.340;-6.308;2023-11-22T08:24:15;3.45;;;0.77;;
82265;SDS011;71866;53.340;-6.308;2023-11-22T08:26:42;3.22;;;0.70;;
82265;SDS011;71866;53.340;-6.308;2023-11-22T08:29:09;1.38;;;0.70;;
82265;SDS011;71866;53.340;-6.308;2023-11-22T08:31:37;1.75;;;0.93;;
82265;SDS011;71866;53.340;-6.308;2023-11-22T08:34:03;2.97;;;0.80;;
82265;SDS011;71866;53.340;-6.308;2023-11-22T08:36:30;3.42;;;0.80;;
82265;SDS011;71866;53.340;-6.308;2023-11-22T08:38:58;5.00;;;1.33;;
82265;SDS011;71866;53.340;-6.308;2023-11-22T08:41:25;4.35;;;0.90;;
82265;SDS011;71866;53.340;-6.308;2023-11-22T08:43:57;2.42;;;0.60;;
82265;SDS011;71866;53.340;-6.308;2023-11-22T08:46:23;4.22;;;0.70;;
82265;SDS011;71866;53.340;-6.308;2023-11-22T08:48:50;4.20;;;1.00;;
82265;SDS011;71866;53.340;-6.308;2023-11-22T08:51:18;3.03;;;0.50;;
82265;SDS011;71866;53.340;-6.308;2023-11-22T08:53:45;4.63;;;1.00;;
82265;SDS011;71866;53.340;-6.308;2023-11-22T08:56:12;4.70;;;0.80;;
82265;SDS011;71866;53.340;-6.308;2023-11-22T08:58:39;4.45;;;0.70;;
82265;SDS011;71866;53.340;-6.308;2023-11-22T09:01:07;1.15;;;1.02;;
82265;SDS011;71866;53.340;-6.308;2023-11-22T09:03:34;3.63;;;0.80;;
82265;SDS011;71866;53.340;-6.308;2023-11-22T09:06:00;4.47;;;1.00;;
82265;SDS011;71866;53.340;-6.308;2023-11-22T09:08:28;2.45;;;0.93;;
82265;SDS011;71866;53.340;-6.308;2023-11-22T09:10:56;1.55;;;0.70;;
82265;SDS011;71866;53.340;-6.308;2023-11-22T09:13:24;1.83;;;0.73;;
82265;SDS011;71866;53.340;-6.308;2023-11-22T09:15:51;2.90;;;0.55;;
82265;SDS011;71866;53.340;-6.308;2023-11-22T09:18:17;2.67;;;0.73;;
82265;SDS011;71866;53.340;-6.308;2023-11-22T09:20:45;4.50;;;0.98;;
82265;SDS011;71866;53.340;-6.308;2023-11-22T09:23:12;2.50;;;0.82;;
82265;SDS011;71866;53.340;-6.308;2023-11-22T09:25:38;1.42;;;0.80;;
82265;SDS011;71866;53.340;-6.308;2023-11-22T09:28:07;2.50;;;0.77;;
82265;SDS011;71866;53.340;-6.308;2023-11-22T09:30:34;2.85;;;0.70;;
82265;SDS011;71866;53.340;-6.308;2023-11-22T09:33:02;2.60;;;0.82;;
82265;SDS011;71866;53.340;-6.308;2023-11-22T09:35:29;5.93;;;0.70;;
82265;SDS011;71866;53.340;-6.308;2023-11-22T09:38:01;1.48;;;0.70;;
82265;SDS011;71866;53.340;-6.308;2023-11-22T09:40:29;1.13;;;0.40;;
82265;SDS011;71866;53.340;-6.308;2023-11-22T09:42:56;2.65;;;1.10;;
82265;SDS011;71866;53.340;-6.308;2023-11-22T09:45:24;1.10;;;0.45;;
82265;SDS011;71866;53.340;-6.308;2023-11-22T09:47:50;1.15;;;0.50;;
82265;SDS011;71866;53.340;-6.308;2023-11-22T09:50:19;1.23;;;0.52;;
82265;SDS011;71866;53.340;-6.308;2023-11-22T09:52:50;1.58;;;0.50;;
82265;SDS011;71866;53.340;-6.308;2023-11-22T09:55:17;2.10;;;0.45;;
82265;SDS011;71866;53.340;-6.308;2023-11-22T09:57:47;1.50;;;0.43;;
82265;SDS011;71866;53.340;-6.308;2023-11-22T10:00:17;2.88;;;0.60;;
82265;SDS011;71866;53.340;-6.308;2023-11-22T10:02:46;1.55;;;0.60;;
82265;SDS011;71866;53.340;-6.308;2023-11-22T10:05:14;1.23;;;0.57;;
82265;SDS011;71866;53.340;-6.308;2023-11-22T10:07:41;3.10;;;0.68;;
82265;SDS011;71866;53.340;-6.308;2023-11-22T10:10:08;0.60;;;0.40;;
82265;SDS011;71866;53.340;-6.308;2023-11-22T10:12:35;1.00;;;0.50;;
82265;SDS011;71866;53.340;-6.308;2023-11-22T10:15:13;0.80;;;0.40;;
82265;SDS011;71866;53.340;-6.308;2023-11-22T10:17:40;1.00;;;0.40;;
82265;SDS011;71866;53.340;-6.308;2023-11-22T10:20:08;0.60;;;0.43;;
82265;SDS011;71866;53.340;-6.308;2023-11-22T10:22:42;0.80;;;0.40;;
82265;SDS011;71866;53.340;-6.308;2023-11-22T10:25:11;1.75;;;0.50;;
82265;SDS011;71866;53.340;-6.308;2023-11-22T10:27:38;1.65;;;0.70;;
82265;SDS011;71866;53.340;-6.308;2023-11-22T10:30:06;2.58;;;0.60;;
82265;SDS011;71866;53.340;-6.308;2023-11-22T10:32:34;1.15;;;0.40;;
82265;SDS011;71866;53.340;-6.308;2023-11-22T10:35:01;1.35;;;0.40;;
82265;SDS011;71866;53.340;-6.308;2023-11-22T10:37:28;0.75;;;0.50;;
82265;SDS011;71866;53.340;-6.308;2023-11-22T10:39:56;1.20;;;0.50;;
82265;SDS011;71866;53.340;-6.308;2023-11-22T10:42:23;1.10;;;0.40;;
82265;SDS011;71866;53.340;-6.308;2023-11-22T10:44:52;2.15;;;0.50;;
82265;SDS011;71866;53.340;-6.308;2023-11-22T10:47:23;0.93;;;0.57;;
82265;SDS011;71866;53.340;-6.308;2023-11-22T10:49:50;0.55;;;0.40;;
82265;SDS011;71866;53.340;-6.308;2023-11-22T10:52:18;1.60;;;0.60;;
82265;SDS011;71866;53.340;-6.308;2023-11-22T10:54:50;2.55;;;0.75;;
82265;SDS011;71866;53.340;-6.308;2023-11-22T10:57:26;0.90;;;0.60;;
82265;SDS011;71866;53.340;-6.308;2023-11-22T10:59:59;1.55;;;0.57;;
82265;SDS011;71866;53.340;-6.308;2023-11-22T11:02:29;0.50;;;0.28;;
82265;SDS011;71866;53.340;-6.308;2023-11-22T11:05:02;1.73;;;0.60;;
82265;SDS011;71866;53.340;-6.308;2023-11-22T11:07:38;2.17;;;0.80;;
82265;SDS011;71866;53.340;-6.308;2023-11-22T11:10:08;2.08;;;0.63;;
82265;SDS011;71866;53.340;-6.308;2023-11-22T11:12:45;1.05;;;0.50;;
82265;SDS011;71866;53.340;-6.308;2023-11-22T11:15:14;0.95;;;0.30;;
82265;SDS011;71866;53.340;-6.308;2023-11-22T11:17:43;0.90;;;0.40;;
82265;SDS011;71866;53.340;-6.308;2023-11-22T11:20:11;1.30;;;0.40;;
82265;SDS011;71866;53.340;-6.308;2023-11-22T11:22:38;0.73;;;0.35;;
82265;SDS011;71866;53.340;-6.308;2023-11-22T11:25:05;1.33;;;0.60;;
82265;SDS011;71866;53.340;-6.308;2023-11-22T11:27:33;3.00;;;0.82;;
82265;SDS011;71866;53.340;-6.308;2023-11-22T11:30:24;1.35;;;0.60;;
82265;SDS011;71866;53.340;-6.308;2023-11-22T11:35:38;1.70;;;0.85;;
82265;SDS011;71866;53.340;-6.308;2023-11-22T11:38:05;1.60;;;1.00;;
82265;SDS011;71866;53.340;-6.308;2023-11-22T11:40:36;2.88;;;1.20;;
82265;SDS011;71866;53.340;-6.308;2023-11-22T11:43:04;1.60;;;0.90;;
82265;SDS011;71866;53.340;-6.308;2023-11-22T11:45:38;1.98;;;0.68;;
82265;SDS011;71866;53.340;-6.308;2023-11-22T11:48:06;1.90;;;0.80;;
82265;SDS011;71866;53.340;-6.308;2023-11-22T11:50:34;1.75;;;0.80;;
82265;SDS011;71866;53.340;-6.308;2023-11-22T11:53:01;2.05;;;0.73;;
82265;SDS011;71866;53.340;-6.308;2023-11-22T11:55:27;1.75;;;0.82;;
82265;SDS011;71866;53.340;-6.308;2023-11-22T11:57:55;2.05;;;0.93;;
82265;SDS011;71866;53.340;-6.308;2023-11-22T12:00:22;1.65;;;0.60;;
82265;SDS011;71866;53.340;-6.308;2023-11-22T12:02:50;2.95;;;0.70;;
82265;SDS011;71866;53.340;-6.308;2023-11-22T12:05:18;0.90;;;0.70;;
82265;SDS011;71866;53.340;-6.308;2023-11-22T12:07:46;2.60;;;0.93;;
82265;SDS011;71866;53.340;-6.308;2023-11-22T12:10:13;1.05;;;0.60;;
82265;SDS011;71866;53.340;-6.308;2023-11-22T12:12:43;1.13;;;0.50;;
82265;SDS011;71866;53.340;-6.308;2023-11-22T12:15:10;1.33;;;0.50;;
82265;SDS011;71866;53.340;-6.308;2023-11-22T12:17:37;1.45;;;0.70;;
82265;SDS011;71866;53.340;-6.308;2023-11-22T12:20:09;1.50;;;0.70;;
82265;SDS011;71866;53.340;-6.308;2023-11-22T12:22:45;1.90;;;0.65;;
82265;SDS011;71866;53.340;-6.308;2023-11-22T12:25:12;1.85;;;0.73;;
82265;SDS011;71866;53.340;-6.308;2023-11-22T12:27:41;1.05;;;0.43;;
82265;SDS011;71866;53.340;-6.308;2023-11-22T12:30:09;0.45;;;0.45;;
82265;SDS011;71866;53.340;-6.308;2023-11-22T12:32:38;1.58;;;0.60;;
82265;SDS011;71866;53.340;-6.308;2023-11-22T12:35:05;2.00;;;0.70;;
82265;SDS011;71866;53.340;-6.308;2023-11-22T12:37:34;0.73;;;0.50;;
82265;SDS011;71866;53.340;-6.308;2023-11-22T12:40:09;2.17;;;0.50;;
82265;SDS011;71866;53.340;-6.308;2023-11-22T12:42:46;0.60;;;0.30;;
82265;SDS011;71866;53.340;-6.308;2023-11-22T12:45:21;1.45;;;0.45;;
82265;SDS011;71866;53.340;-6.308;2023-11-22T12:47:52;2.40;;;0.40;;
82265;SDS011;71866;53.340;-6.308;2023-11-22T12:58:10;0.75;;;0.35;;
82265;SDS011;71866;53.340;-6.308;2023-11-22T13:00:37;1.60;;;0.50;;
82265;SDS011;71866;53.340;-6.308;2023-11-22T13:03:05;1.38;;;0.60;;
82265;SDS011;71866;53.340;-6.308;2023-11-22T13:05:33;1.00;;;0.55;;
82265;SDS011;71866;53.340;-6.308;2023-11-22T13:08:00;0.68;;;0.32;;
82265;SDS011;71866;53.340;-6.308;2023-11-22T13:10:28;0.77;;;0.40;;
82265;SDS011;71866;53.340;-6.308;2023-11-22T13:12:54;0.60;;;0.50;;
82265;SDS011;71866;53.340;-6.308;2023-11-22T13:15:22;1.10;;;0.43;;
82265;SDS011;71866;53.340;-6.308;2023-11-22T13:17:50;0.47;;;0.40;;
82265;SDS011;71866;53.340;-6.308;2023-11-22T13:20:17;0.50;;;0.40;;
82265;SDS011;71866;53.340;-6.308;2023-11-22T13:22:44;0.65;;;0.43;;
82265;SDS011;71866;53.340;-6.308;2023-11-22T13:25:11;0.93;;;0.32;;
82265;SDS011;71866;53.340;-6.308;2023-11-22T13:27:40;1.67;;;0.50;;
82265;SDS011;71866;53.340;-6.308;2023-11-22T13:30:06;1.33;;;0.50;;
82265;SDS011;71866;53.340;-6.308;2023-11-22T13:32:33;1.55;;;0.45;;
82265;SDS011;71866;53.340;-6.308;2023-11-22T13:35:01;2.47;;;0.50;;
82265;SDS011;71866;53.340;-6.308;2023-11-22T13:37:28;0.77;;;0.40;;
82265;SDS011;71866;53.340;-6.308;2023-11-22T13:39:55;1.05;;;0.40;;
82265;SDS011;71866;53.340;-6.308;2023-11-22T13:42:24;2.50;;;0.45;;
82265;SDS011;71866;53.340;-6.308;2023-11-22T13:44:51;0.68;;;0.47;;
82265;SDS011;71866;53.340;-6.308;2023-11-22T13:47:18;1.48;;;0.60;;
82265;SDS011;71866;53.340;-6.308;2023-11-22T13:49:45;1.50;;;0.52;;
82265;SDS011;71866;53.340;-6.308;2023-11-22T13:52:12;2.10;;;0.80;;
82265;SDS011;71866;53.340;-6.308;2023-11-22T13:54:39;1.42;;;0.60;;
82265;SDS011;71866;53.340;-6.308;2023-11-22T13:57:06;0.80;;;0.30;;
82265;SDS011;71866;53.340;-6.308;2023-11-22T13:59:33;2.08;;;0.50;;
82265;SDS011;71866;53.340;-6.308;2023-11-22T14:02:00;1.67;;;0.50;;
82265;SDS011;71866;53.340;-6.308;2023-11-22T14:04:27;0.65;;;0.40;;
82265;SDS011;71866;53.340;-6.308;2023-11-22T14:06:55;0.82;;;0.47;;
82265;SDS011;71866;53.340;-6.308;2023-11-22T14:09:21;1.85;;;0.43;;
82265;SDS011;71866;53.340;-6.308;2023-11-22T14:11:48;1.02;;;0.40;;
82265;SDS011;71866;53.340;-6.308;2023-11-22T14:14:17;1.42;;;0.65;;
82265;SDS011;71866;53.340;-6.308;2023-11-22T14:16:44;2.00;;;0.60;;
82265;SDS011;71866;53.340;-6.308;2023-11-22T14:19:11;1.33;;;0.50;;
82265;SDS011;71866;53.340;-6.308;2023-11-22T14:21:39;1.30;;;0.50;;
82265;SDS011;71866;53.340;-6.308;2023-11-22T14:24:05;1.10;;;0.50;;
82265;SDS011;71866;53.340;-6.308;2023-11-22T14:26:33;0.60;;;0.38;;
82265;SDS011;71866;53.340;-6.308;2023-11-22T14:29:01;0.52;;;0.40;;
82265;SDS011;71866;53.340;-6.308;2023-11-22T14:31:28;0.85;;;0.40;;
82265;SDS011;71866;53.340;-6.308;2023-11-22T14:33:54;1.42;;;0.40;;
82265;SDS011;71866;53.340;-6.308;2023-11-22T14:36:23;0.82;;;0.60;;
82265;SDS011;71866;53.340;-6.308;2023-11-22T14:38:50;1.35;;;0.60;;
82265;SDS011;71866;53.340;-6.308;2023-11-22T14:41:16;1.17;;;0.40;;
82265;SDS011;71866;53.340;-6.308;2023-11-22T14:43:44;1.50;;;0.50;;
82265;SDS011;71866;53.340;-6.308;2023-11-22T14:46:11;2.65;;;0.70;;
82265;SDS011;71866;53.340;-6.308;2023-11-22T14:48:38;1.83;;;0.80;;
82265;SDS011;71866;53.340;-6.308;2023-11-22T14:51:05;1.63;;;0.50;;